Arapahoe, NC (28510)

6:00 PM EST on February 13, 2016 (GMT -0500)
Arapahoe, NC | | Change Station
CLOSE
Current Station
Personal Weather Station
Location: South Arapahoe, NC
Elevation: 75 ft
Nearby Weather Stations
Active Advisory: Special Statement

Elev 75 ft 35.01 °N, 76.82 °W | Updated 9 minutes ago

Clear
Clear
32.0 °F
Feels Like 32 °F
N
0.0
Wind Variable Wind from NNW
Gusts 6.0 mph

Today
High -- | Low -- °F
--% Chance of Precip.
Yesterday
High -- | Low -- °F
Precip. -- in
Pressure 30.32 in
Visibility 10.0 miles
Clouds Clear
Windchill 32 °F
Dew Point 7 °F
Humidity 35%
Rainfall 0.00 in
Snow Depth Not available.
6:55 AM 5:47 PM
Waxing Crescent, 35% visible
METAR KNKT 132254Z 31013KT 10SM CLR 01/M15 A3033 RMK AO2 SLP265 T00061150
Pressure 30.32 in
Visibility 10.0 miles
Clouds Clear
Windchill 32 °F
Dew Point 7 °F
Humidity 35%
Rainfall 0.00 in
Snow Depth Not available.
6:55 AM 5:47 PM
Waxing Crescent, 35% visible
METAR KNKT 132254Z 31013KT 10SM CLR 01/M15 A3033 RMK AO2 SLP265 T00061150

10-Day Weather Forecast

Almanac

Astronomy

Feb. 13, 2016 Rise Set
Actual Time
Civil Twilight
Nautical Twilight
Astronomical Twilight
Moon
Length of Visible Light
Length of Day
Tomorrow will be .
, % of the Moon is Illuminated

Today's Extremes

State Highs State Lows

Community

WunderPhotos

Upload Photos

1,892,689 photos uploaded!

WunderBlog® & News

Nearby

Air Quality

  Air Quality AQ Index Pollutant
Not available.

Snow Depth

Station Depth Elevation

Earthquake Activity

City Distance Mag. Time & Date
Minimum magnitude displayed is 2.5.

Coastal Water Temperatures

Place Temperature

Stations

Nearby Weather Stations

Station Location Temp. Windchill Dew Point Humidity Wind Precip. Elev Updated Type
                   

Watches & Warnings

Special Statement
Issued: 3:52 PM EST Feb. 13, 2016 – National Weather Service

... Very cold wind chill values late tonight and Sunday morning...

Arctic high pressure will build into the region tonight bringing
northwest winds and very cold temperatures around 15-20 degrees by
late tonight. This will produce wind chill values in the single
digits early Sunday morning.

Prolonged exposure to these wind chill temperatures is dangerous.
If venturing outside, wear layers of clothing including a hat and
gloves.